Safmarine Cameroun — 9V9863 — position and weather

sailwx.info

Track history (hours):
 
Tides and Currents Weather Stations Pressure Air Temp Water Temp Dewpoint Dewpoint Depression Visibility Wind Speed Wind Dir Waves Ship Positions

Safmarine Cameroun

Last reported at 2017-Nov-05 20:13 UTC. Time now 2017-Nov-22 16:47 UTC.
Position S 04°49' E 011°14'.
Warning: this ship's position is 16 days out of date.

Length 195 m; draft 10.3 m.

Type: Ship (hazmat cat A). MMSI: 566415000.

Date/timePositionNaut miles runAvg speedWind from/ knotsBaromVisibWave heightAir tempDewpointWater temp
2017-Nov-05 20:13S 04°49' E 011°14'415.3
2017-Nov-05 19:58S 04°51' E 011°17'715.2
2017-Nov-05 19:30S 04°54' E 011°24'7 0.2
2017-Nov-04 11:10S 04°54' E 011°31'415.1
2017-Nov-04 10:55S 04°54' E 011°27'615.0
2017-Nov-04 10:29S 04°52' E 011°21'  
2017-Oct-28 18:08N 19°02' W 017°55'215.9
2017-Oct-28 17:59N 19°05' W 017°55'1015.9
2017-Oct-28 17:20N 19°15' W 017°56'616.0
2017-Oct-28 16:57N 19°21' W 017°56'716.0
2017-Oct-28 16:30N 19°28' W 017°56'1115.6
2017-Oct-28 15:48N 19°39' W 017°56'515.5
2017-Oct-28 15:29N 19°44' W 017°56'1015.5
2017-Oct-28 14:50N 19°54' W 017°57'815.5
2017-Oct-28 14:20N 20°02' W 017°57'45615.0
2017-Oct-27 07:53N 26°58' W 014°31'716.5
2017-Oct-27 07:29N 27°03' W 014°26'816.8
2017-Oct-27 07:00N 27°09' W 014°20'816.9
2017-Oct-27 06:31N 27°15' W 014°14'816.8
2017-Oct-27 06:00N 27°21' W 014°08'816.5
2017-Oct-27 05:30N 27°27' W 014°01'816.4
2017-Oct-27 05:00N 27°34' W 013°55'816.2
2017-Oct-27 04:30N 27°40' W 013°50'816.3
2017-Oct-27 04:00N 27°46' W 013°44'816.3
2017-Oct-27 03:30N 27°52' W 013°38'816.4
2017-Oct-27 03:00N 27°58' W 013°31'916.4
2017-Oct-27 02:27N 28°06' W 013°26'716.6
2017-Oct-27 02:00N 28°13' W 013°22'816.8
2017-Oct-27 01:30N 28°20' W 013°17'  
Track history (hours):
 
Tides and Currents Weather Stations Pressure Air Temp Water Temp Dewpoint Dewpoint Depression Visibility Wind Speed Wind Dir Waves Ship Positions

Safmarine Cameroun

Last reported at 2017-Nov-05 20:13 UTC. Time now 2017-Nov-22 16:47 UTC.
Position S 04°49' E 011°14'.
Warning: this ship's position is 16 days out of date.

Length 195 m; draft 10.3 m.

Type: Ship (hazmat cat A). MMSI: 566415000.

Date/timePositionNaut miles runAvg speedWind from/ knotsBaromVisibWave heightAir tempDewpointWater temp
2017-Nov-05 20:13S 04°49' E 011°14'415.3
2017-Nov-05 19:58S 04°51' E 011°17'715.2
2017-Nov-05 19:30S 04°54' E 011°24'7 0.2
2017-Nov-04 11:10S 04°54' E 011°31'415.1
2017-Nov-04 10:55S 04°54' E 011°27'615.0
2017-Nov-04 10:29S 04°52' E 011°21'  
2017-Oct-28 18:08N 19°02' W 017°55'215.9
2017-Oct-28 17:59N 19°05' W 017°55'1015.9
2017-Oct-28 17:20N 19°15' W 017°56'616.0
2017-Oct-28 16:57N 19°21' W 017°56'716.0
2017-Oct-28 16:30N 19°28' W 017°56'1115.6
2017-Oct-28 15:48N 19°39' W 017°56'515.5
2017-Oct-28 15:29N 19°44' W 017°56'1015.5
2017-Oct-28 14:50N 19°54' W 017°57'815.5
2017-Oct-28 14:20N 20°02' W 017°57'45615.0
2017-Oct-27 07:53N 26°58' W 014°31'716.5
2017-Oct-27 07:29N 27°03' W 014°26'816.8
2017-Oct-27 07:00N 27°09' W 014°20'816.9
2017-Oct-27 06:31N 27°15' W 014°14'816.8
2017-Oct-27 06:00N 27°21' W 014°08'816.5
2017-Oct-27 05:30N 27°27' W 014°01'816.4
2017-Oct-27 05:00N 27°34' W 013°55'816.2
2017-Oct-27 04:30N 27°40' W 013°50'816.3
2017-Oct-27 04:00N 27°46' W 013°44'816.3
2017-Oct-27 03:30N 27°52' W 013°38'816.4
2017-Oct-27 03:00N 27°58' W 013°31'916.4
2017-Oct-27 02:27N 28°06' W 013°26'716.6
2017-Oct-27 02:00N 28°13' W 013°22'816.8
2017-Oct-27 01:30N 28°20' W 013°17'  

Dump ship's entire track history